KUNV/SCE METAR and TAF weather

Enter ICAO airport designator
Station Type Date Time Source
KUNV METAR 2022/12/04 04:35 UTC NOAA

KUNV 040435Z AUTO 26011KT 10SM BKN035 BKN075 01/M05 A3024 RMK AO2 T00111048


Station Type Date Time Source
KUNV Decoded METAR 2022/12/04 04:35 UTC NOAA

State College, University Park Airport, PA, United States (KUNV) 40-51N 077-51W
Dec 03, 2022 - 11:35 PM EST / 2022.12.04 0435 UTC
Wind: from the W (260 degrees) at 13 MPH (11 KT):0
Visibility: 10 mile(s):0
Sky conditions: mostly cloudy
Temperature: 34.0 F (1.1 C)
Windchill: 24 F (-4 C):1
Dew Point: 23.4 F (-4.8 C)
Relative Humidity: 64%
Pressure (altimeter): 30.24 in. Hg (1024 hPa)
ob: KUNV 040435Z AUTO 26011KT 10SM BKN035 BKN075 01/M05 A3024 RMK AO2 T00111048
cycle: 4

Station Type Date Time Source
KUNV TAF 2022/12/04 03:15 UTC NOAA

TAF
AMD KUNV 040313Z 0403/0424 30010KT P6SM SCT040
FM040500 28010KT P6SM BKN250
FM041300 27005KT P6SM BKN250

Example: see airport list